Honiara, Solomon Islands
Current Conditions -  °F | °C
As of 6:00 PM on Saturday 25 Oct 2014 (Local Time) from AGGH Reporting Station
Thunderstorm Thunderstorm  
Wind Chill: 81°   Ceiling: 11000
Heat Index: 86°   Visibility: 6mi
Dew Point: 75°   Wind: 9mph
Humidity: 84%   Direction: 160°SSE
Pressure: 29.83"   Gusts: NA
Location:  9.43°S, 159.91°E
Report Text: AGGH 250700Z 16008KT 9999 -TS FEW018 SCT019CB BKN110 27/24 Q1010
Loading
Personal Weather Stations






























Interactive Weather Map
Tropical Storm Tracking
New forecast layout! Learn more

10-Day Weather Forecast

Advertisements
Track Severe Weather on mobile